»·PEaware :: N164BW KPRC-KGCN

N164BW :: KPRC-KGCN

FLIGHT INFORMATION

Flight Status: Arrived
Operator: Privately registered:
United States
More flights under this callsign
Pilot: Steve R. (35445)
Aircraft: CIRRUS SR-22
(SR22)
More flights by this aircraft type
Origin: KPRC Love
United States
Destination: KGCN Grand Canyon Natl Park
United States
More flights between these airports :: More routes between these airports
Route: DRK V257 BISOP
File this flight plan on PilotEdge
Remarks:
Altitude:
(Current/Filed)
11,000ft
Speed:
(Current/Filed)
150kts
Departed: 29-Oct-23 11:18 AM
Arrived: 29-Oct-23 12:04 PM
Distance/Time
Traveled:
79nm/0:46
Distance/Time
To Go:
Arrived

Flight Plot

Page will automatically refresh every two minutes.

Flight plan parsing failed; only flown route is shown


Map Options




Map Legend


Flown Route
Filed Route
Departure Airport
Arrival Airport
Navaid (VOR, NDB)
Fix

Horizontal Profiles

Position Reports

Time Latitude Longitude Heading Altitude Ground
Speed
29-Oct-23 10:46 34.646778 -112.425142 217 5025ft 0kts
29-Oct-23 10:47 34.646778 -112.425142 217 5025ft 0kts
29-Oct-23 10:48 34.646778 -112.425142 217 5025ft 0kts
29-Oct-23 10:49 34.646778 -112.425142 217 5025ft 0kts
29-Oct-23 10:50 34.646778 -112.425142 217 5025ft 0kts
29-Oct-23 10:51 34.646778 -112.425142 217 5025ft 0kts
29-Oct-23 10:52 34.646778 -112.425142 217 5025ft 0kts
29-Oct-23 10:53 34.646778 -112.425142 217 5025ft 0kts
29-Oct-23 10:54 34.646778 -112.425142 217 5025ft 0kts
29-Oct-23 10:55 34.646778 -112.425142 217 5025ft 0kts
29-Oct-23 10:56 34.646778 -112.425142 217 5025ft 0kts
29-Oct-23 10:57 34.646778 -112.425142 217 5025ft 0kts
29-Oct-23 10:58 34.646778 -112.425142 217 5025ft 0kts
29-Oct-23 10:59 34.646778 -112.425142 217 5025ft 0kts
29-Oct-23 11:00 34.646778 -112.425142 217 5025ft 0kts
29-Oct-23 11:01 34.646778 -112.425142 217 5025ft 0kts
29-Oct-23 11:02 34.646778 -112.425142 217 5025ft 0kts
29-Oct-23 11:03 34.646778 -112.425142 217 5025ft 0kts
29-Oct-23 11:04 34.646778 -112.425142 217 5025ft 0kts
29-Oct-23 11:05 34.646778 -112.425142 217 5025ft 0kts
29-Oct-23 11:06 34.646778 -112.425142 217 5025ft 0kts
29-Oct-23 11:07 34.646778 -112.425142 217 5025ft 0kts
29-Oct-23 11:08 34.646834 -112.425176 30 5034ft 4kts
29-Oct-23 11:09 34.648865 -112.423711 40 5024ft 8kts
29-Oct-23 11:10 34.651303 -112.421126 40 5017ft 15kts
29-Oct-23 11:11 34.655767 -112.416418 43 4993ft 25kts
29-Oct-23 11:12 34.660931 -112.409812 52 4958ft 15kts
29-Oct-23 11:13 34.661523 -112.410536 312 4957ft 8kts
29-Oct-23 11:14 34.661548 -112.410572 310 4957ft 0kts
29-Oct-23 11:15 34.661548 -112.410572 310 4957ft 0kts
29-Oct-23 11:16 34.661573 -112.410605 313 4958ft 3kts
29-Oct-23 11:17 34.651912 -112.421011 218 5042ft 102kts
29-Oct-23 11:18 34.626113 -112.439103 210 6239ft 106kts
29-Oct-23 11:19 34.600769 -112.457934 209 7391ft 106kts
29-Oct-23 11:20 34.575576 -112.476613 210 8324ft 105kts
29-Oct-23 11:21 34.550605 -112.495106 209 9225ft 104kts
29-Oct-23 11:22 34.525754 -112.513712 210 10248ft 105kts
29-Oct-23 11:23 34.499537 -112.532514 209 10957ft 128kts
29-Oct-23 11:24 34.462555 -112.558314 214 10937ft 167kts
29-Oct-23 11:25 34.478893 -112.588265 21 10936ft 169kts
29-Oct-23 11:26 34.523225 -112.566739 21 10957ft 171kts
29-Oct-23 11:27 34.567898 -112.545230 21 10971ft 173kts
29-Oct-23 11:28 34.612493 -112.523777 21 10991ft 173kts
29-Oct-23 11:29 34.657356 -112.502149 20 10993ft 173kts
29-Oct-23 11:30 34.701976 -112.480885 14 10990ft 171kts
29-Oct-23 11:31 34.749252 -112.477208 3 10984ft 169kts
29-Oct-23 11:32 34.796233 -112.473854 3 10970ft 169kts
29-Oct-23 11:33 34.843282 -112.471382 3 10954ft 169kts
29-Oct-23 11:34 34.890289 -112.468454 3 10936ft 168kts
29-Oct-23 11:36 34.937045 -112.465410 3 10922ft 168kts
29-Oct-23 11:37 34.983812 -112.462392 3 10905ft 170kts
29-Oct-23 11:38 35.030985 -112.459383 4 10897ft 169kts
29-Oct-23 11:39 35.078076 -112.456358 4 10906ft 170kts
29-Oct-23 11:40 35.125016 -112.453353 4 10903ft 169kts
29-Oct-23 11:41 35.172257 -112.450321 4 10881ft 170kts
29-Oct-23 11:42 35.219598 -112.447270 5 10895ft 170kts
29-Oct-23 11:43 35.266705 -112.444246 5 10894ft 169kts
29-Oct-23 11:44 35.313909 -112.441167 4 10902ft 170kts
29-Oct-23 11:45 35.361253 -112.439371 1 10906ft 169kts
29-Oct-23 11:46 35.408275 -112.439796 3 10916ft 169kts
29-Oct-23 11:47 35.455085 -112.435507 5 10922ft 168kts
29-Oct-23 11:48 35.501793 -112.431251 5 10887ft 170kts
29-Oct-23 11:49 35.548734 -112.426961 6 10886ft 168kts
29-Oct-23 11:50 35.595147 -112.423529 5 10753ft 161kts
29-Oct-23 11:51 35.637357 -112.420469 5 10242ft 146kts
29-Oct-23 11:52 35.677000 -112.417941 7 9692ft 133kts
29-Oct-23 11:53 35.705712 -112.401559 74 9146ft 118kts
29-Oct-23 11:54 35.730590 -112.379253 40 8867ft 112kts
29-Oct-23 11:55 35.757066 -112.352238 41 8859ft 129kts
29-Oct-23 11:56 35.784500 -112.323457 41 8837ft 129kts
29-Oct-23 11:57 35.811685 -112.294896 41 8821ft 128kts
29-Oct-23 11:58 35.838853 -112.266414 41 8816ft 129kts
29-Oct-23 11:58 35.861812 -112.242191 41 8779ft 127kts
29-Oct-23 12:00 35.889839 -112.212684 41 8075ft 104kts
29-Oct-23 12:01 35.910640 -112.190930 40 7506ft 82kts
29-Oct-23 12:02 35.927456 -112.173247 44 7036ft 94kts
29-Oct-23 12:02 35.943164 -112.156712 50 6602ft 56kts
29-Oct-23 12:03 35.947253 -112.151423 118 6558ft 15kts
29-Oct-23 12:04 35.950172 -112.147530 37 6570ft 18kts

Navigation Log

Ident Type
Flight plan parsing failed, navigation log unavailable